sensor_id;sensor_type;location;lat;lon;timestamp;temperature;humidity
31129;DHT22;17777;48.770;8.944;2022-09-09T00:01:32;21.10;47.70
31129;DHT22;17777;48.770;8.944;2022-09-09T00:04:05;21.20;47.70
31129;DHT22;17777;48.770;8.944;2022-09-09T00:09:32;21.10;47.70
31129;DHT22;17777;48.770;8.944;2022-09-09T00:12:22;21.10;47.70
31129;DHT22;17777;48.770;8.944;2022-09-09T00:14:57;21.10;47.80
31129;DHT22;17777;48.770;8.944;2022-09-09T00:17:36;21.10;47.80
31129;DHT22;17777;48.770;8.944;2022-09-09T00:20:14;21.10;47.80
31129;DHT22;17777;48.770;8.944;2022-09-09T00:22:53;21.10;47.80
31129;DHT22;17777;48.770;8.944;2022-09-09T00:25:33;21.10;47.80
31129;DHT22;17777;48.770;8.944;2022-09-09T00:28:04;21.10;47.80
31129;DHT22;17777;48.770;8.944;2022-09-09T00:30:44;21.10;47.80
31129;DHT22;17777;48.770;8.944;2022-09-09T00:33:13;21.10;47.80
31129;DHT22;17777;48.770;8.944;2022-09-09T00:35:47;21.10;47.80
31129;DHT22;17777;48.770;8.944;2022-09-09T00:38:24;21.10;47.80
31129;DHT22;17777;48.770;8.944;2022-09-09T00:41:00;21.00;47.80
31129;DHT22;17777;48.770;8.944;2022-09-09T00:56:34;21.00;47.90
31129;DHT22;17777;48.770;8.944;2022-09-09T01:01:36;21.00;47.90
31129;DHT22;17777;48.770;8.944;2022-09-09T01:04:02;21.00;47.90
31129;DHT22;17777;48.770;8.944;2022-09-09T01:06:32;21.00;47.90
31129;DHT22;17777;48.770;8.944;2022-09-09T01:14:22;21.00;47.90
31129;DHT22;17777;48.770;8.944;2022-09-09T01:17:20;21.00;47.90
31129;DHT22;17777;48.770;8.944;2022-09-09T01:25:56;21.00;48.00
31129;DHT22;17777;48.770;8.944;2022-09-09T01:28:33;21.00;47.90
31129;DHT22;17777;48.770;8.944;2022-09-09T01:31:05;21.00;48.00
31129;DHT22;17777;48.770;8.944;2022-09-09T01:33:38;20.90;47.90
31129;DHT22;17777;48.770;8.944;2022-09-09T01:36:06;20.90;48.00
31129;DHT22;17777;48.770;8.944;2022-09-09T01:38:42;20.90;48.00
31129;DHT22;17777;48.770;8.944;2022-09-09T01:41:08;20.90;48.00
31129;DHT22;17777;48.770;8.944;2022-09-09T01:43:42;20.90;48.00
31129;DHT22;17777;48.770;8.944;2022-09-09T01:46:08;20.90;48.10
31129;DHT22;17777;48.770;8.944;2022-09-09T01:48:36;20.90;48.10
31129;DHT22;17777;48.770;8.944;2022-09-09T01:51:05;20.90;48.20
31129;DHT22;17777;48.770;8.944;2022-09-09T01:53:30;20.90;48.10
31129;DHT22;17777;48.770;8.944;2022-09-09T01:58:54;20.90;48.20
31129;DHT22;17777;48.770;8.944;2022-09-09T02:02:13;21.00;48.20
31129;DHT22;17777;48.770;8.944;2022-09-09T02:07:20;21.00;48.20
31129;DHT22;17777;48.770;8.944;2022-09-09T02:10:29;21.00;48.10
31129;DHT22;17777;48.770;8.944;2022-09-09T02:13:10;21.00;48.10
31129;DHT22;17777;48.770;8.944;2022-09-09T02:15:57;21.00;48.10
31129;DHT22;17777;48.770;8.944;2022-09-09T02:18:35;21.00;48.10
31129;DHT22;17777;48.770;8.944;2022-09-09T02:21:07;21.00;48.10
31129;DHT22;17777;48.770;8.944;2022-09-09T02:23:33;21.00;48.10
31129;DHT22;17777;48.770;8.944;2022-09-09T02:26:02;21.00;48.20
31129;DHT22;17777;48.770;8.944;2022-09-09T02:28:30;21.00;48.10
31129;DHT22;17777;48.770;8.944;2022-09-09T02:30:57;21.00;48.10
31129;DHT22;17777;48.770;8.944;2022-09-09T02:33:33;21.10;48.10
31129;DHT22;17777;48.770;8.944;2022-09-09T02:36:02;21.00;48.10
31129;DHT22;17777;48.770;8.944;2022-09-09T02:38:31;21.10;48.10
31129;DHT22;17777;48.770;8.944;2022-09-09T02:41:05;21.00;48.10
31129;DHT22;17777;48.770;8.944;2022-09-09T02:43:33;21.00;48.10
31129;DHT22;17777;48.770;8.944;2022-09-09T02:48:51;21.10;48.10
31129;DHT22;17777;48.770;8.944;2022-09-09T02:54:35;21.00;48.10
31129;DHT22;17777;48.770;8.944;2022-09-09T02:57:10;21.00;48.10
31129;DHT22;17777;48.770;8.944;2022-09-09T02:59:39;21.00;48.10
31129;DHT22;17777;48.770;8.944;2022-09-09T03:02:05;21.00;48.00
31129;DHT22;17777;48.770;8.944;2022-09-09T03:04:31;20.90;48.00
31129;DHT22;17777;48.770;8.944;2022-09-09T03:06:58;20.90;48.00
31129;DHT22;17777;48.770;8.944;2022-09-09T03:09:24;20.80;48.00
31129;DHT22;17777;48.770;8.944;2022-09-09T03:11:52;20.80;48.10
31129;DHT22;17777;48.770;8.944;2022-09-09T03:14:18;20.70;48.10
31129;DHT22;17777;48.770;8.944;2022-09-09T03:16:47;20.80;48.30
31129;DHT22;17777;48.770;8.944;2022-09-09T03:19:13;20.70;48.20
31129;DHT22;17777;48.770;8.944;2022-09-09T03:21:40;20.70;48.20
31129;DHT22;17777;48.770;8.944;2022-09-09T03:24:06;20.70;48.30
31129;DHT22;17777;48.770;8.944;2022-09-09T03:26:32;20.70;48.30
31129;DHT22;17777;48.770;8.944;2022-09-09T03:28:59;20.70;48.30
31129;DHT22;17777;48.770;8.944;2022-09-09T03:31:29;20.70;48.30
31129;DHT22;17777;48.770;8.944;2022-09-09T03:33:57;20.70;48.30
31129;DHT22;17777;48.770;8.944;2022-09-09T03:36:27;20.70;48.30
31129;DHT22;17777;48.770;8.944;2022-09-09T03:38:54;20.70;48.30
31129;DHT22;17777;48.770;8.944;2022-09-09T03:41:22;20.70;48.30
31129;DHT22;17777;48.770;8.944;2022-09-09T03:43:50;20.70;48.30
31129;DHT22;17777;48.770;8.944;2022-09-09T03:46:17;20.60;48.30
31129;DHT22;17777;48.770;8.944;2022-09-09T03:48:44;20.60;48.30
31129;DHT22;17777;48.770;8.944;2022-09-09T03:51:09;20.60;48.30
31129;DHT22;17777;48.770;8.944;2022-09-09T03:53:36;20.60;48.30
31129;DHT22;17777;48.770;8.944;2022-09-09T03:56:04;20.60;48.30
31129;DHT22;17777;48.770;8.944;2022-09-09T03:58:35;20.60;48.30
31129;DHT22;17777;48.770;8.944;2022-09-09T04:01:08;20.60;48.40
31129;DHT22;17777;48.770;8.944;2022-09-09T04:03:36;20.50;48.30
31129;DHT22;17777;48.770;8.944;2022-09-09T04:06:02;20.60;48.40
31129;DHT22;17777;48.770;8.944;2022-09-09T04:08:30;20.50;48.40
31129;DHT22;17777;48.770;8.944;2022-09-09T04:10:57;20.50;48.40
31129;DHT22;17777;48.770;8.944;2022-09-09T04:13:25;20.50;48.40
31129;DHT22;17777;48.770;8.944;2022-09-09T04:15:52;20.50;48.50
31129;DHT22;17777;48.770;8.944;2022-09-09T04:18:19;20.50;48.50
31129;DHT22;17777;48.770;8.944;2022-09-09T04:20:48;20.50;48.50
31129;DHT22;17777;48.770;8.944;2022-09-09T04:23:16;20.50;48.50
31129;DHT22;17777;48.770;8.944;2022-09-09T04:25:47;20.50;48.50
31129;DHT22;17777;48.770;8.944;2022-09-09T04:28:15;20.50;48.50
31129;DHT22;17777;48.770;8.944;2022-09-09T04:30:42;20.50;48.50
31129;DHT22;17777;48.770;8.944;2022-09-09T04:33:09;20.50;48.60
31129;DHT22;17777;48.770;8.944;2022-09-09T04:35:35;20.50;48.60
31129;DHT22;17777;48.770;8.944;2022-09-09T04:38:01;20.50;48.50
31129;DHT22;17777;48.770;8.944;2022-09-09T04:40:31;20.50;48.50
31129;DHT22;17777;48.770;8.944;2022-09-09T04:42:57;20.60;48.60
31129;DHT22;17777;48.770;8.944;2022-09-09T04:45:24;20.60;48.60
31129;DHT22;17777;48.770;8.944;2022-09-09T04:47:52;20.60;48.60
31129;DHT22;17777;48.770;8.944;2022-09-09T04:50:18;20.60;48.50
31129;DHT22;17777;48.770;8.944;2022-09-09T04:52:46;20.60;48.50
31129;DHT22;17777;48.770;8.944;2022-09-09T04:55:12;20.60;48.50
31129;DHT22;17777;48.770;8.944;2022-09-09T04:57:40;20.60;48.50
31129;DHT22;17777;48.770;8.944;2022-09-09T05:00:06;20.60;48.50
31129;DHT22;17777;48.770;8.944;2022-09-09T05:02:37;20.60;48.50
31129;DHT22;17777;48.770;8.944;2022-09-09T05:05:04;20.60;48.50
31129;DHT22;17777;48.770;8.944;2022-09-09T05:07:30;20.60;48.50
31129;DHT22;17777;48.770;8.944;2022-09-09T05:09:57;20.60;48.50
31129;DHT22;17777;48.770;8.944;2022-09-09T05:12:24;20.60;48.50
31129;DHT22;17777;48.770;8.944;2022-09-09T05:14:51;20.60;48.60
31129;DHT22;17777;48.770;8.944;2022-09-09T05:17:17;20.60;48.50
31129;DHT22;17777;48.770;8.944;2022-09-09T05:19:44;20.60;48.50
31129;DHT22;17777;48.770;8.944;2022-09-09T05:22:10;20.60;48.50
31129;DHT22;17777;48.770;8.944;2022-09-09T05:24:43;20.60;48.60
31129;DHT22;17777;48.770;8.944;2022-09-09T05:27:09;20.60;49.20
31129;DHT22;17777;48.770;8.944;2022-09-09T05:29:38;20.60;48.60
31129;DHT22;17777;48.770;8.944;2022-09-09T05:32:06;20.70;48.70
31129;DHT22;17777;48.770;8.944;2022-09-09T05:34:34;20.70;48.60
31129;DHT22;17777;48.770;8.944;2022-09-09T05:37:00;20.70;48.70
31129;DHT22;17777;48.770;8.944;2022-09-09T05:39:26;20.70;48.60
31129;DHT22;17777;48.770;8.944;2022-09-09T05:41:51;20.70;48.60
31129;DHT22;17777;48.770;8.944;2022-09-09T05:44:17;20.70;48.60
31129;DHT22;17777;48.770;8.944;2022-09-09T05:46:45;20.70;48.60
31129;DHT22;17777;48.770;8.944;2022-09-09T05:49:12;20.70;48.60
31129;DHT22;17777;48.770;8.944;2022-09-09T05:51:39;20.70;48.60
31129;DHT22;17777;48.770;8.944;2022-09-09T05:54:09;20.70;48.60
31129;DHT22;17777;48.770;8.944;2022-09-09T05:56:39;20.70;48.60
31129;DHT22;17777;48.770;8.944;2022-09-09T05:59:07;20.70;48.70
31129;DHT22;17777;48.770;8.944;2022-09-09T06:01:34;20.60;48.60
31129;DHT22;17777;48.770;8.944;2022-09-09T06:04:01;20.70;48.70
31129;DHT22;17777;48.770;8.944;2022-09-09T06:06:32;20.70;48.70
31129;DHT22;17777;48.770;8.944;2022-09-09T06:09:05;20.70;48.70
31129;DHT22;17777;48.770;8.944;2022-09-09T06:11:34;20.70;48.70
31129;DHT22;17777;48.770;8.944;2022-09-09T06:14:02;20.70;48.70
31129;DHT22;17777;48.770;8.944;2022-09-09T06:16:30;20.70;48.70
31129;DHT22;17777;48.770;8.944;2022-09-09T06:18:58;20.80;48.70
31129;DHT22;17777;48.770;8.944;2022-09-09T06:21:35;20.80;48.70
31129;DHT22;17777;48.770;8.944;2022-09-09T06:24:03;20.80;48.70
31129;DHT22;17777;48.770;8.944;2022-09-09T06:29:03;20.80;48.70
31129;DHT22;17777;48.770;8.944;2022-09-09T06:31:29;20.80;48.70
31129;DHT22;17777;48.770;8.944;2022-09-09T06:34:00;20.80;48.70
31129;DHT22;17777;48.770;8.944;2022-09-09T06:36:30;20.80;48.70
31129;DHT22;17777;48.770;8.944;2022-09-09T06:38:58;20.80;48.70
31129;DHT22;17777;48.770;8.944;2022-09-09T06:41:25;20.80;48.70
31129;DHT22;17777;48.770;8.944;2022-09-09T06:43:52;20.80;48.70
31129;DHT22;17777;48.770;8.944;2022-09-09T06:46:23;20.90;48.80
31129;DHT22;17777;48.770;8.944;2022-09-09T06:48:53;20.90;48.80
31129;DHT22;17777;48.770;8.944;2022-09-09T06:51:32;20.90;48.70
31129;DHT22;17777;48.770;8.944;2022-09-09T06:54:01;20.90;48.70
31129;DHT22;17777;48.770;8.944;2022-09-09T06:56:30;21.00;48.80
31129;DHT22;17777;48.770;8.944;2022-09-09T06:59:00;21.00;48.80
31129;DHT22;17777;48.770;8.944;2022-09-09T07:01:30;21.00;48.70
31129;DHT22;17777;48.770;8.944;2022-09-09T07:04:00;21.00;48.70
31129;DHT22;17777;48.770;8.944;2022-09-09T07:06:28;21.10;48.80
31129;DHT22;17777;48.770;8.944;2022-09-09T07:08:58;21.10;48.80
31129;DHT22;17777;48.770;8.944;2022-09-09T07:11:27;21.20;48.80
31129;DHT22;17777;48.770;8.944;2022-09-09T07:13:56;21.20;48.80
31129;DHT22;17777;48.770;8.944;2022-09-09T07:16:23;21.30;48.90
31129;DHT22;17777;48.770;8.944;2022-09-09T07:18:50;21.30;48.80
31129;DHT22;17777;48.770;8.944;2022-09-09T07:21:16;21.40;48.80
31129;DHT22;17777;48.770;8.944;2022-09-09T07:23:42;21.40;48.80
31129;DHT22;17777;48.770;8.944;2022-09-09T07:26:09;21.50;48.80
31129;DHT22;17777;48.770;8.944;2022-09-09T07:28:40;21.50;48.80
31129;DHT22;17777;48.770;8.944;2022-09-09T07:31:08;21.50;48.80
31129;DHT22;17777;48.770;8.944;2022-09-09T07:33:39;21.60;48.80
31129;DHT22;17777;48.770;8.944;2022-09-09T07:36:10;21.70;48.80
31129;DHT22;17777;48.770;8.944;2022-09-09T07:38:39;21.70;48.80
31129;DHT22;17777;48.770;8.944;2022-09-09T07:41:09;21.70;48.80
31129;DHT22;17777;48.770;8.944;2022-09-09T07:43:39;21.70;48.70
31129;DHT22;17777;48.770;8.944;2022-09-09T07:46:09;21.80;48.80
31129;DHT22;17777;48.770;8.944;2022-09-09T07:48:35;21.90;48.80
31129;DHT22;17777;48.770;8.944;2022-09-09T07:51:05;21.90;48.80
31129;DHT22;17777;48.770;8.944;2022-09-09T07:53:33;22.00;48.80
31129;DHT22;17777;48.770;8.944;2022-09-09T07:56:04;22.10;48.80
31129;DHT22;17777;48.770;8.944;2022-09-09T07:58:31;22.20;48.80
31129;DHT22;17777;48.770;8.944;2022-09-09T08:00:57;22.20;48.70
31129;DHT22;17777;48.770;8.944;2022-09-09T08:03:23;22.30;48.70
31129;DHT22;17777;48.770;8.944;2022-09-09T08:05:49;22.30;48.70
31129;DHT22;17777;48.770;8.944;2022-09-09T08:08:15;22.40;48.70
31129;DHT22;17777;48.770;8.944;2022-09-09T08:10:42;22.50;48.70
31129;DHT22;17777;48.770;8.944;2022-09-09T08:13:08;22.60;48.80
31129;DHT22;17777;48.770;8.944;2022-09-09T08:15:34;22.70;48.70
31129;DHT22;17777;48.770;8.944;2022-09-09T08:18:00;22.80;48.80
31129;DHT22;17777;48.770;8.944;2022-09-09T08:20:26;22.80;48.70
31129;DHT22;17777;48.770;8.944;2022-09-09T08:22:54;23.00;48.70
31129;DHT22;17777;48.770;8.944;2022-09-09T08:25:20;23.00;48.60
31129;DHT22;17777;48.770;8.944;2022-09-09T08:27:46;23.10;48.60
31129;DHT22;17777;48.770;8.944;2022-09-09T08:30:12;23.20;48.60
31129;DHT22;17777;48.770;8.944;2022-09-09T08:32:39;23.20;48.60
31129;DHT22;17777;48.770;8.944;2022-09-09T08:35:05;23.30;48.50
31129;DHT22;17777;48.770;8.944;2022-09-09T08:37:31;23.40;48.50
31129;DHT22;17777;48.770;8.944;2022-09-09T08:39:58;23.50;48.50
31129;DHT22;17777;48.770;8.944;2022-09-09T08:42:44;23.50;48.40
31129;DHT22;17777;48.770;8.944;2022-09-09T08:45:16;23.60;48.40
31129;DHT22;17777;48.770;8.944;2022-09-09T08:50:22;23.80;48.30
31129;DHT22;17777;48.770;8.944;2022-09-09T08:52:57;23.80;48.30
31129;DHT22;17777;48.770;8.944;2022-09-09T08:57:58;24.00;48.20
31129;DHT22;17777;48.770;8.944;2022-09-09T09:09:57;24.30;47.90
31129;DHT22;17777;48.770;8.944;2022-09-09T09:12:29;24.30;47.90
31129;DHT22;17777;48.770;8.944;2022-09-09T09:14:59;24.30;47.90
31129;DHT22;17777;48.770;8.944;2022-09-09T09:17:26;24.40;47.90
31129;DHT22;17777;48.770;8.944;2022-09-09T09:19:55;24.40;47.90
31129;DHT22;17777;48.770;8.944;2022-09-09T09:22:44;24.50;47.90
31129;DHT22;17777;48.770;8.944;2022-09-09T09:27:57;24.60;47.90
31129;DHT22;17777;48.770;8.944;2022-09-09T09:30:29;24.60;47.90
31129;DHT22;17777;48.770;8.944;2022-09-09T09:35:38;24.80;47.80
31129;DHT22;17777;48.770;8.944;2022-09-09T09:38:12;24.80;47.70
31129;DHT22;17777;48.770;8.944;2022-09-09T09:40:55;24.90;47.70
31129;DHT22;17777;48.770;8.944;2022-09-09T09:43:27;25.00;47.70
31129;DHT22;17777;48.770;8.944;2022-09-09T09:45:56;25.00;47.60
31129;DHT22;17777;48.770;8.944;2022-09-09T09:48:25;25.10;47.50
31129;DHT22;17777;48.770;8.944;2022-09-09T09:50:52;25.20;47.60
31129;DHT22;17777;48.770;8.944;2022-09-09T09:53:27;25.20;47.50
31129;DHT22;17777;48.770;8.944;2022-09-09T09:55:57;25.30;47.50
31129;DHT22;17777;48.770;8.944;2022-09-09T09:58:25;25.40;47.50
31129;DHT22;17777;48.770;8.944;2022-09-09T10:00:52;25.40;47.40
31129;DHT22;17777;48.770;8.944;2022-09-09T10:03:32;25.60;47.50
31129;DHT22;17777;48.770;8.944;2022-09-09T10:06:05;25.60;47.30
31129;DHT22;17777;48.770;8.944;2022-09-09T10:08:33;25.70;47.30
31129;DHT22;17777;48.770;8.944;2022-09-09T10:11:20;25.70;47.10
31129;DHT22;17777;48.770;8.944;2022-09-09T10:13:56;25.80;47.00
31129;DHT22;17777;48.770;8.944;2022-09-09T10:19:20;26.00;47.10
31129;DHT22;17777;48.770;8.944;2022-09-09T10:22:00;26.00;47.10
31129;DHT22;17777;48.770;8.944;2022-09-09T10:26:59;26.10;47.20
31129;DHT22;17777;48.770;8.944;2022-09-09T10:32:37;26.20;47.20
31129;DHT22;17777;48.770;8.944;2022-09-09T10:35:12;26.30;47.40
31129;DHT22;17777;48.770;8.944;2022-09-09T10:37:49;26.30;47.50
31129;DHT22;17777;48.770;8.944;2022-09-09T10:43:25;26.50;47.50
31129;DHT22;17777;48.770;8.944;2022-09-09T10:49:05;26.50;47.20
31129;DHT22;17777;48.770;8.944;2022-09-09T10:52:20;26.50;47.10
31129;DHT22;17777;48.770;8.944;2022-09-09T10:59:55;26.10;46.70
31129;DHT22;17777;48.770;8.944;2022-09-09T11:02:29;25.90;46.60
31129;DHT22;17777;48.770;8.944;2022-09-09T11:05:03;25.70;46.60
31129;DHT22;17777;48.770;8.944;2022-09-09T11:07:35;25.50;46.60
31129;DHT22;17777;48.770;8.944;2022-09-09T11:10:16;25.30;46.40
31129;DHT22;17777;48.770;8.944;2022-09-09T11:12:51;25.10;46.30
31129;DHT22;17777;48.770;8.944;2022-09-09T11:15:36;24.90;46.40
31129;DHT22;17777;48.770;8.944;2022-09-09T11:18:11;24.70;46.40
31129;DHT22;17777;48.770;8.944;2022-09-09T11:20:39;24.40;46.50
31129;DHT22;17777;48.770;8.944;2022-09-09T11:23:09;24.20;46.60
31129;DHT22;17777;48.770;8.944;2022-09-09T11:25:39;24.10;46.60
31129;DHT22;17777;48.770;8.944;2022-09-09T11:28:11;23.90;46.70
31129;DHT22;17777;48.770;8.944;2022-09-09T11:41:14;23.20;47.20
31129;DHT22;17777;48.770;8.944;2022-09-09T11:43:44;23.10;47.40
31129;DHT22;17777;48.770;8.944;2022-09-09T11:46:12;23.00;47.50
31129;DHT22;17777;48.770;8.944;2022-09-09T11:48:59;22.90;47.60
31129;DHT22;17777;48.770;8.944;2022-09-09T11:51:30;22.80;47.60
31129;DHT22;17777;48.770;8.944;2022-09-09T11:54:01;22.80;47.70
31129;DHT22;17777;48.770;8.944;2022-09-09T11:56:45;22.70;47.80
31129;DHT22;17777;48.770;8.944;2022-09-09T11:59:27;22.70;47.90
31129;DHT22;17777;48.770;8.944;2022-09-09T12:01:56;22.70;48.10
31129;DHT22;17777;48.770;8.944;2022-09-09T12:04:28;22.60;48.20
31129;DHT22;17777;48.770;8.944;2022-09-09T12:06:58;22.70;48.20
31129;DHT22;17777;48.770;8.944;2022-09-09T12:14:43;22.90;48.40
31129;DHT22;17777;48.770;8.944;2022-09-09T12:17:20;23.00;48.50
31129;DHT22;17777;48.770;8.944;2022-09-09T12:19:48;23.00;48.40
31129;DHT22;17777;48.770;8.944;2022-09-09T12:22:37;23.10;48.40
31129;DHT22;17777;48.770;8.944;2022-09-09T12:28:18;23.30;48.40
31129;DHT22;17777;48.770;8.944;2022-09-09T12:33:43;23.40;48.30
31129;DHT22;17777;48.770;8.944;2022-09-09T12:36:17;23.50;48.30
31129;DHT22;17777;48.770;8.944;2022-09-09T12:38:45;23.60;48.30
31129;DHT22;17777;48.770;8.944;2022-09-09T12:41:24;23.70;48.30
31129;DHT22;17777;48.770;8.944;2022-09-09T12:43:51;23.80;48.30
31129;DHT22;17777;48.770;8.944;2022-09-09T12:46:29;23.90;48.30
31129;DHT22;17777;48.770;8.944;2022-09-09T12:48:57;23.90;48.20
31129;DHT22;17777;48.770;8.944;2022-09-09T12:53:55;24.20;48.20
31129;DHT22;17777;48.770;8.944;2022-09-09T12:56:22;24.30;48.10
31129;DHT22;17777;48.770;8.944;2022-09-09T12:58:52;24.40;48.00
31129;DHT22;17777;48.770;8.944;2022-09-09T13:01:29;24.40;47.90
31129;DHT22;17777;48.770;8.944;2022-09-09T13:03:56;24.60;47.90
31129;DHT22;17777;48.770;8.944;2022-09-09T13:06:23;24.60;47.90
31129;DHT22;17777;48.770;8.944;2022-09-09T13:08:56;24.70;47.70
31129;DHT22;17777;48.770;8.944;2022-09-09T13:11:46;24.80;47.70
31129;DHT22;17777;48.770;8.944;2022-09-09T13:14:27;24.90;47.70
31129;DHT22;17777;48.770;8.944;2022-09-09T13:16:59;25.00;47.70
31129;DHT22;17777;48.770;8.944;2022-09-09T13:19:25;25.10;47.50
31129;DHT22;17777;48.770;8.944;2022-09-09T13:21:54;25.20;47.50
31129;DHT22;17777;48.770;8.944;2022-09-09T13:24:33;25.20;47.30
31129;DHT22;17777;48.770;8.944;2022-09-09T13:27:01;25.30;47.30
31129;DHT22;17777;48.770;8.944;2022-09-09T13:29:28;25.40;47.30
31129;DHT22;17777;48.770;8.944;2022-09-09T13:32:05;25.40;47.20
31129;DHT22;17777;48.770;8.944;2022-09-09T13:34:33;25.60;47.20
31129;DHT22;17777;48.770;8.944;2022-09-09T13:37:01;25.60;47.10
31129;DHT22;17777;48.770;8.944;2022-09-09T13:39:28;25.70;47.00
31129;DHT22;17777;48.770;8.944;2022-09-09T13:41:54;25.80;46.90
31129;DHT22;17777;48.770;8.944;2022-09-09T13:44:24;25.80;46.80
31129;DHT22;17777;48.770;8.944;2022-09-09T13:49:44;26.00;46.80
31129;DHT22;17777;48.770;8.944;2022-09-09T13:52:14;26.10;46.70
31129;DHT22;17777;48.770;8.944;2022-09-09T13:54:42;26.10;46.60
31129;DHT22;17777;48.770;8.944;2022-09-09T13:57:18;26.20;46.50
31129;DHT22;17777;48.770;8.944;2022-09-09T13:59:45;26.30;46.50
31129;DHT22;17777;48.770;8.944;2022-09-09T14:02:12;26.30;46.40
31129;DHT22;17777;48.770;8.944;2022-09-09T14:04:38;26.40;46.40
31129;DHT22;17777;48.770;8.944;2022-09-09T14:07:09;26.50;46.30
31129;DHT22;17777;48.770;8.944;2022-09-09T14:09:36;26.50;46.20
31129;DHT22;17777;48.770;8.944;2022-09-09T14:12:02;26.60;46.20
31129;DHT22;17777;48.770;8.944;2022-09-09T14:14:28;26.60;46.10
31129;DHT22;17777;48.770;8.944;2022-09-09T14:16:54;26.70;46.10
31129;DHT22;17777;48.770;8.944;2022-09-09T14:19:20;26.70;45.90
31129;DHT22;17777;48.770;8.944;2022-09-09T14:21:45;26.80;45.90
31129;DHT22;17777;48.770;8.944;2022-09-09T14:24:11;26.80;45.80
31129;DHT22;17777;48.770;8.944;2022-09-09T14:26:37;26.80;45.70
31129;DHT22;17777;48.770;8.944;2022-09-09T14:29:03;26.80;45.60
31129;DHT22;17777;48.770;8.944;2022-09-09T14:31:32;26.80;45.60
31129;DHT22;17777;48.770;8.944;2022-09-09T14:33:58;26.80;45.50
31129;DHT22;17777;48.770;8.944;2022-09-09T14:36:24;26.90;45.50
31129;DHT22;17777;48.770;8.944;2022-09-09T14:38:50;26.90;45.60
31129;DHT22;17777;48.770;8.944;2022-09-09T14:41:16;26.90;45.20
31129;DHT22;17777;48.770;8.944;2022-09-09T14:43:43;26.90;45.30
31129;DHT22;17777;48.770;8.944;2022-09-09T14:46:14;27.00;45.30
31129;DHT22;17777;48.770;8.944;2022-09-09T14:48:46;27.00;45.90
31129;DHT22;17777;48.770;8.944;2022-09-09T14:51:14;27.00;45.10
31129;DHT22;17777;48.770;8.944;2022-09-09T14:53:44;27.00;45.00
31129;DHT22;17777;48.770;8.944;2022-09-09T14:56:12;27.00;45.00
31129;DHT22;17777;48.770;8.944;2022-09-09T14:58:40;27.00;44.90
31129;DHT22;17777;48.770;8.944;2022-09-09T15:01:07;27.00;45.00
31129;DHT22;17777;48.770;8.944;2022-09-09T15:03:36;27.00;44.90
31129;DHT22;17777;48.770;8.944;2022-09-09T15:06:12;26.90;44.80
31129;DHT22;17777;48.770;8.944;2022-09-09T15:08:40;26.90;44.80
31129;DHT22;17777;48.770;8.944;2022-09-09T15:11:10;26.90;44.80
31129;DHT22;17777;48.770;8.944;2022-09-09T15:13:42;26.90;44.80
31129;DHT22;17777;48.770;8.944;2022-09-09T15:18:36;26.70;44.60
31129;DHT22;17777;48.770;8.944;2022-09-09T15:21:02;26.70;44.60
31129;DHT22;17777;48.770;8.944;2022-09-09T15:23:33;26.70;44.60
31129;DHT22;17777;48.770;8.944;2022-09-09T15:26:00;26.70;44.60
31129;DHT22;17777;48.770;8.944;2022-09-09T15:28:25;26.70;44.50
31129;DHT22;17777;48.770;8.944;2022-09-09T15:30:51;26.70;44.60
31129;DHT22;17777;48.770;8.944;2022-09-09T15:33:18;26.70;44.60
31129;DHT22;17777;48.770;8.944;2022-09-09T15:35:45;26.70;44.50
31129;DHT22;17777;48.770;8.944;2022-09-09T15:38:11;26.70;44.50
31129;DHT22;17777;48.770;8.944;2022-09-09T15:40:41;26.70;44.50
31129;DHT22;17777;48.770;8.944;2022-09-09T15:43:06;26.70;44.50
31129;DHT22;17777;48.770;8.944;2022-09-09T15:45:33;26.60;45.10
31129;DHT22;17777;48.770;8.944;2022-09-09T15:47:59;26.60;44.40
31129;DHT22;17777;48.770;8.944;2022-09-09T15:50:26;26.60;44.50
31129;DHT22;17777;48.770;8.944;2022-09-09T15:52:52;26.50;44.30
31129;DHT22;17777;48.770;8.944;2022-09-09T15:55:18;26.50;44.40
31129;DHT22;17777;48.770;8.944;2022-09-09T15:57:45;26.40;44.20
31129;DHT22;17777;48.770;8.944;2022-09-09T16:00:11;26.40;44.30
31129;DHT22;17777;48.770;8.944;2022-09-09T16:02:38;26.30;44.20
31129;DHT22;17777;48.770;8.944;2022-09-09T16:05:04;26.30;44.20
31129;DHT22;17777;48.770;8.944;2022-09-09T16:07:30;26.20;44.20
31129;DHT22;17777;48.770;8.944;2022-09-09T16:09:56;26.10;44.10
31129;DHT22;17777;48.770;8.944;2022-09-09T16:12:22;26.10;44.10
31129;DHT22;17777;48.770;8.944;2022-09-09T16:14:47;26.00;44.10
31129;DHT22;17777;48.770;8.944;2022-09-09T16:17:13;26.00;44.10
31129;DHT22;17777;48.770;8.944;2022-09-09T16:19:40;25.90;44.00
31129;DHT22;17777;48.770;8.944;2022-09-09T16:22:06;25.80;43.90
31129;DHT22;17777;48.770;8.944;2022-09-09T16:24:32;25.70;43.90
31129;DHT22;17777;48.770;8.944;2022-09-09T16:26:58;25.60;43.80
31129;DHT22;17777;48.770;8.944;2022-09-09T16:29:23;25.50;43.80
31129;DHT22;17777;48.770;8.944;2022-09-09T16:31:52;25.40;43.80
31129;DHT22;17777;48.770;8.944;2022-09-09T16:34:19;25.20;43.70
31129;DHT22;17777;48.770;8.944;2022-09-09T16:36:45;25.10;43.70
31129;DHT22;17777;48.770;8.944;2022-09-09T16:39:13;25.00;43.90
31129;DHT22;17777;48.770;8.944;2022-09-09T16:41:42;24.90;44.00
31129;DHT22;17777;48.770;8.944;2022-09-09T16:44:09;24.80;44.00
31129;DHT22;17777;48.770;8.944;2022-09-09T16:46:37;24.70;44.20
31129;DHT22;17777;48.770;8.944;2022-09-09T16:49:07;24.60;44.20
31129;DHT22;17777;48.770;8.944;2022-09-09T16:51:48;24.50;44.30
31129;DHT22;17777;48.770;8.944;2022-09-09T16:54:15;24.40;44.40
31129;DHT22;17777;48.770;8.944;2022-09-09T16:56:43;24.40;44.60
31129;DHT22;17777;48.770;8.944;2022-09-09T16:59:11;24.40;44.60
31129;DHT22;17777;48.770;8.944;2022-09-09T17:01:39;24.30;44.70
31129;DHT22;17777;48.770;8.944;2022-09-09T17:04:12;24.20;44.70
31129;DHT22;17777;48.770;8.944;2022-09-09T17:06:40;24.20;44.80
31129;DHT22;17777;48.770;8.944;2022-09-09T17:09:10;24.10;44.80
31129;DHT22;17777;48.770;8.944;2022-09-09T17:11:39;24.10;44.80
31129;DHT22;17777;48.770;8.944;2022-09-09T17:14:05;24.10;44.90
31129;DHT22;17777;48.770;8.944;2022-09-09T17:16:33;24.10;44.90
31129;DHT22;17777;48.770;8.944;2022-09-09T17:19:02;24.00;45.00
31129;DHT22;17777;48.770;8.944;2022-09-09T17:21:29;24.00;45.00
31129;DHT22;17777;48.770;8.944;2022-09-09T17:23:55;23.90;45.00
31129;DHT22;17777;48.770;8.944;2022-09-09T17:26:22;23.90;45.10
31129;DHT22;17777;48.770;8.944;2022-09-09T17:28:52;23.90;45.10
31129;DHT22;17777;48.770;8.944;2022-09-09T17:31:18;23.90;45.10
31129;DHT22;17777;48.770;8.944;2022-09-09T17:33:45;23.80;45.10
31129;DHT22;17777;48.770;8.944;2022-09-09T17:36:17;23.80;45.20
31129;DHT22;17777;48.770;8.944;2022-09-09T17:38:45;23.80;45.20
31129;DHT22;17777;48.770;8.944;2022-09-09T17:41:16;23.70;45.20